createdAt,value
2019-04-10T00:01:20.748Z,6.45
2019-04-10T00:02:57.723Z,6.53
2019-04-10T00:04:33.389Z,6.54
2019-04-10T00:06:08.864Z,6.52
2019-04-10T00:07:44.593Z,6.48
2019-04-10T00:09:21.081Z,6.48
2019-04-10T00:10:58.977Z,6.47
2019-04-10T00:12:36.424Z,6.45
2019-04-10T00:14:14.708Z,6.47
2019-04-10T00:15:50.993Z,6.42
2019-04-10T00:17:27.010Z,6.39
2019-04-10T00:19:02.679Z,6.40
2019-04-10T00:20:37.752Z,6.41
2019-04-10T00:22:13.928Z,6.42
2019-04-10T00:23:49.632Z,6.35
2019-04-10T00:25:25.019Z,6.35
2019-04-10T00:27:00.184Z,6.29
2019-04-10T00:28:35.878Z,6.28
2019-04-10T00:30:13.119Z,6.27
2019-04-10T00:31:48.743Z,6.29
2019-04-10T00:33:24.985Z,6.25
2019-04-10T00:35:00.375Z,6.21
2019-04-10T00:36:35.814Z,6.16
2019-04-10T00:38:12.126Z,6.23
2019-04-10T00:39:47.704Z,6.22
2019-04-10T00:41:23.970Z,6.20
2019-04-10T00:43:00.209Z,6.21
2019-04-10T00:44:35.863Z,6.22
2019-04-10T00:46:11.429Z,6.23
2019-04-10T00:47:49.168Z,6.26
2019-04-10T00:49:27.349Z,6.24
2019-04-10T00:51:08.868Z,6.21
2019-04-10T00:52:44.697Z,6.15
2019-04-10T00:54:20.150Z,6.23
2019-04-10T00:55:56.381Z,6.21
2019-04-10T00:57:31.692Z,6.25
2019-04-10T00:59:08.760Z,6.24
2019-04-10T01:00:45.412Z,6.15
2019-04-10T01:02:21.167Z,6.13
2019-04-10T01:03:56.495Z,6.15
2019-04-10T01:05:31.764Z,6.10
2019-04-10T01:07:08.594Z,6.08
2019-04-10T01:08:44.756Z,6.03
2019-04-10T01:10:19.941Z,5.97
2019-04-10T01:11:57.506Z,6.00
2019-04-10T01:13:32.718Z,6.04
2019-04-10T01:15:08.455Z,5.91
2019-04-10T01:16:43.965Z,5.89
2019-04-10T01:18:19.629Z,5.86
2019-04-10T01:19:55.101Z,5.86
2019-04-10T01:21:30.599Z,5.85
2019-04-10T01:23:06.081Z,5.81
2019-04-10T01:24:41.736Z,5.75
2019-04-10T01:26:17.215Z,5.66
2019-04-10T01:27:52.586Z,5.61
2019-04-10T01:29:29.274Z,5.59
2019-04-10T01:31:04.757Z,5.65
2019-04-10T01:32:40.178Z,5.57
2019-04-10T01:34:17.005Z,5.56
2019-04-10T01:35:52.426Z,5.49
2019-04-10T01:37:28.866Z,5.42
2019-04-10T01:39:04.228Z,5.40
2019-04-10T01:40:39.423Z,5.34
2019-04-10T01:42:14.601Z,5.34
2019-04-10T01:43:51.105Z,5.31
2019-04-10T01:45:27.319Z,5.28
2019-04-10T01:47:02.892Z,5.25
2019-04-10T01:48:44.030Z,5.22
2019-04-10T01:50:20.076Z,5.10
2019-04-10T01:51:55.635Z,5.05
2019-04-10T01:53:31.473Z,5.16
2019-04-10T01:55:18.129Z,5.16
2019-04-10T01:56:45.930Z,5.20
2019-04-10T01:58:23.191Z,5.07
2019-04-10T02:00:00.493Z,5.03
2019-04-10T02:01:49.214Z,4.93
2019-04-10T02:03:34.060Z,4.86
2019-04-10T02:05:18.594Z,4.87
2019-04-10T02:06:54.062Z,4.75
2019-04-10T02:08:32.367Z,4.62
2019-04-10T02:10:09.964Z,4.55
2019-04-10T02:11:46.067Z,4.48
2019-04-10T02:13:21.572Z,4.50
2019-04-10T02:14:56.766Z,4.55
2019-04-10T02:16:32.681Z,4.53
2019-04-10T02:18:08.868Z,4.43
2019-04-10T02:19:44.138Z,4.35
2019-04-10T02:21:19.946Z,4.23
2019-04-10T02:22:56.202Z,4.16
2019-04-10T02:24:31.824Z,4.11
2019-04-10T02:26:07.471Z,4.19
2019-04-10T02:27:42.716Z,4.15
2019-04-10T02:29:17.997Z,4.11
2019-04-10T02:30:54.549Z,4.06
2019-04-10T02:32:29.886Z,4.02
2019-04-10T02:34:07.559Z,4.01
2019-04-10T02:35:43.504Z,3.90
2019-04-10T02:37:19.278Z,3.82
2019-04-10T02:39:11.364Z,3.74
2019-04-10T02:40:33.187Z,3.65
2019-04-10T02:42:10.054Z,3.58
2019-04-10T02:43:47.466Z,3.51
2019-04-10T02:45:24.172Z,3.44
2019-04-10T02:47:00.143Z,3.37
2019-04-10T02:48:36.038Z,3.33
2019-04-10T02:50:12.550Z,3.25
2019-04-10T02:51:49.849Z,3.19
2019-04-10T02:53:25.654Z,3.10
2019-04-10T02:55:02.043Z,3.16
2019-04-10T02:56:39.039Z,3.04
2019-04-10T02:58:18.663Z,2.95
2019-04-10T02:59:57.647Z,2.98
2019-04-10T03:01:35.573Z,2.93
2019-04-10T03:03:12.035Z,2.83
2019-04-10T03:04:48.929Z,2.75
2019-04-10T03:06:24.617Z,2.61
2019-04-10T03:08:00.254Z,2.53
2019-04-10T03:09:49.639Z,2.48
2019-04-10T03:11:14.528Z,2.48
2019-04-10T03:12:52.600Z,2.45
2019-04-10T03:14:28.554Z,2.40
2019-04-10T03:16:05.454Z,2.31
2019-04-10T03:17:42.075Z,2.34
2019-04-10T03:19:17.530Z,2.39
2019-04-10T03:20:54.124Z,2.34
2019-04-10T03:22:29.533Z,2.27
2019-04-10T03:24:04.589Z,2.22
2019-04-10T03:25:41.855Z,2.34
2019-04-10T03:27:17.075Z,2.23
2019-04-10T03:28:52.204Z,2.18
2019-04-10T03:30:27.462Z,2.14
2019-04-10T03:32:23.656Z,2.19
2019-04-10T03:34:06.221Z,2.18
2019-04-10T03:35:43.244Z,2.16
2019-04-10T03:37:18.363Z,2.18
2019-04-10T03:38:59.918Z,2.29
2019-04-10T03:40:31.380Z,2.22
2019-04-10T03:42:06.899Z,2.22
2019-04-10T03:43:42.166Z,2.16
2019-04-10T03:45:17.749Z,2.16
2019-04-10T03:46:53.875Z,2.25
2019-04-10T03:48:30.003Z,2.23
2019-04-10T03:50:05.144Z,2.29
2019-04-10T03:51:40.970Z,2.25
2019-04-10T03:53:23.196Z,2.13
2019-04-10T03:54:59.125Z,2.06
2019-04-10T03:56:34.366Z,2.13
2019-04-10T03:58:14.110Z,1.98
2019-04-10T03:59:58.157Z,1.88
2019-04-10T04:01:33.940Z,1.81
2019-04-10T04:03:10.573Z,1.76
2019-04-10T04:04:46.044Z,1.73
2019-04-10T04:06:21.864Z,1.76
2019-04-10T04:07:57.471Z,1.75
2019-04-10T04:09:40.630Z,1.77
2019-04-10T04:11:25.961Z,1.72
2019-04-10T04:13:01.637Z,1.69
2019-04-10T04:14:59.006Z,1.72
2019-04-10T04:16:33.835Z,1.66
2019-04-10T04:18:08.938Z,1.64
2019-04-10T04:19:50.407Z,1.60
2019-04-10T04:21:26.119Z,1.61
2019-04-10T04:23:01.450Z,1.63
2019-04-10T04:24:36.753Z,1.59
2019-04-10T04:26:14.825Z,1.54
2019-04-10T04:27:50.000Z,1.50
2019-04-10T04:29:25.100Z,1.50
2019-04-10T04:31:00.995Z,1.55
2019-04-10T04:32:38.389Z,1.56
2019-04-10T04:34:14.662Z,1.57
2019-04-10T04:35:50.786Z,1.55
2019-04-10T04:37:26.101Z,1.55
2019-04-10T04:39:13.541Z,1.57
2019-04-10T04:40:39.362Z,1.60
2019-04-10T04:42:14.985Z,1.57
2019-04-10T04:43:50.217Z,1.56
2019-04-10T04:45:25.656Z,1.53
2019-04-10T04:47:01.219Z,1.49
2019-04-10T04:48:38.241Z,1.52
2019-04-10T04:50:13.319Z,1.57
2019-04-10T04:51:48.524Z,1.58
2019-04-10T04:53:27.988Z,1.63
2019-04-10T04:55:12.197Z,1.59
2019-04-10T04:56:48.374Z,1.60
2019-04-10T04:58:24.345Z,1.62
2019-04-10T04:59:59.566Z,1.61
2019-04-10T05:01:35.993Z,1.59
2019-04-10T05:03:35.350Z,1.58
2019-04-10T05:05:12.638Z,1.53
2019-04-10T05:06:50.071Z,1.52
2019-04-10T05:08:26.389Z,1.55
2019-04-10T05:10:02.204Z,1.59
2019-04-10T05:11:38.518Z,1.59
2019-04-10T05:13:15.928Z,1.60
2019-04-10T05:15:00.351Z,1.64
2019-04-10T05:16:36.319Z,1.66
2019-04-10T05:18:17.726Z,1.67
2019-04-10T05:19:55.691Z,1.69
2019-04-10T05:21:31.553Z,1.70
2019-04-10T05:23:08.884Z,1.73
2019-04-10T05:24:52.364Z,1.73
2019-04-10T05:26:28.189Z,1.74
2019-04-10T05:28:06.163Z,1.75
2019-04-10T05:29:41.369Z,1.75
2019-04-10T05:31:21.408Z,1.76
2019-04-10T05:32:57.783Z,1.80
2019-04-10T05:34:33.849Z,1.84
2019-04-10T05:36:09.119Z,1.88
2019-04-10T05:37:45.638Z,1.91
2019-04-10T05:39:22.368Z,1.95
2019-04-10T05:40:59.257Z,1.98
2019-04-10T05:42:37.283Z,2.00
2019-04-10T05:44:13.619Z,2.04
2019-04-10T05:45:49.394Z,2.06
2019-04-10T05:47:26.151Z,2.15
2019-04-10T05:49:02.955Z,2.21
2019-04-10T05:50:38.531Z,2.24
2019-04-10T05:52:14.705Z,2.34
2019-04-10T05:53:53.648Z,2.44
2019-04-10T05:55:29.061Z,2.53
2019-04-10T05:57:06.844Z,2.64
2019-04-10T05:58:42.808Z,2.69
2019-04-10T06:00:19.478Z,2.99
2019-04-10T06:01:54.748Z,2.98
2019-04-10T06:03:30.316Z,3.15
2019-04-10T06:05:08.206Z,3.14
2019-04-10T06:06:44.310Z,3.29
2019-04-10T06:08:21.602Z,3.27
2019-04-10T06:10:01.918Z,3.28
2019-04-10T06:11:33.627Z,3.31
2019-04-10T06:13:08.963Z,3.29
2019-04-10T06:14:44.480Z,3.26
2019-04-10T06:16:19.883Z,3.32
2019-04-10T06:17:57.231Z,3.35
2019-04-10T06:19:36.342Z,3.50
2019-04-10T06:21:12.528Z,3.60
2019-04-10T06:22:48.091Z,3.66
2019-04-10T06:24:44.619Z,3.82
2019-04-10T06:26:19.956Z,3.98
2019-04-10T06:28:09.427Z,4.42
2019-04-10T06:29:56.163Z,4.58
2019-04-10T06:31:34.257Z,4.80
2019-04-10T06:33:34.477Z,5.04
2019-04-10T06:35:16.632Z,5.52
2019-04-10T06:36:53.476Z,5.37
2019-04-10T06:38:39.438Z,5.74
2019-04-10T06:40:27.121Z,5.92
2019-04-10T06:42:02.536Z,5.81
2019-04-10T06:43:41.279Z,5.62
2019-04-10T06:45:17.528Z,6.33
2019-04-10T06:46:54.991Z,6.35
2019-04-10T06:48:34.228Z,6.44
2019-04-10T06:50:10.634Z,6.67
2019-04-10T06:51:47.300Z,7.13
2019-04-10T06:53:24.758Z,6.74
2019-04-10T06:55:07.119Z,6.48
2019-04-10T06:56:43.790Z,6.60
2019-04-10T06:58:38.144Z,7.03
2019-04-10T07:00:19.763Z,7.37
2019-04-10T07:02:14.134Z,7.62
2019-04-10T07:03:54.571Z,7.62
2019-04-10T07:05:24.057Z,7.74
2019-04-10T07:07:08.785Z,7.85
2019-04-10T07:08:48.885Z,7.97
2019-04-10T07:10:28.552Z,8.06
2019-04-10T07:12:01.022Z,8.25
2019-04-10T07:13:40.060Z,8.47
2019-04-10T07:15:22.403Z,8.56
2019-04-10T07:17:05.057Z,8.54
2019-04-10T07:18:38.635Z,8.60
2019-04-10T07:20:19.152Z,8.54
2019-04-10T07:21:59.773Z,8.64
2019-04-10T07:23:33.824Z,8.55
2019-04-10T07:25:12.693Z,8.70
2019-04-10T07:26:49.490Z,8.64
2019-04-10T07:28:29.877Z,8.50
2019-04-10T07:30:08.401Z,8.74
2019-04-10T07:31:44.654Z,8.78
2019-04-10T07:33:21.072Z,8.77
2019-04-10T07:34:59.162Z,8.92
2019-04-10T07:36:41.689Z,8.85
2019-04-10T07:38:18.025Z,8.87
2019-04-10T07:39:55.083Z,9.16
2019-04-10T07:41:31.703Z,9.23
2019-04-10T07:43:08.154Z,9.45
2019-04-10T07:44:43.613Z,9.05
2019-04-10T07:46:24.091Z,9.18
2019-04-10T07:48:00.342Z,9.45
2019-04-10T07:49:38.112Z,9.67
2019-04-10T07:51:13.541Z,9.58
2019-04-10T07:52:54.248Z,9.77
2019-04-10T07:54:33.113Z,10.08
2019-04-10T07:56:16.241Z,10.26
2019-04-10T07:57:50.692Z,10.45
2019-04-10T07:59:29.647Z,10.32
2019-04-10T08:01:12.317Z,10.24
2019-04-10T08:02:53.205Z,9.71
2019-04-10T08:04:31.672Z,9.55
2019-04-10T08:06:07.538Z,9.34
2019-04-10T08:07:45.220Z,9.79
2019-04-10T08:09:26.875Z,9.63
2019-04-10T08:11:07.623Z,9.43
2019-04-10T08:12:50.094Z,9.65
2019-04-10T08:14:23.721Z,9.86
2019-04-10T08:16:08.076Z,10.25
2019-04-10T08:17:49.763Z,10.44
2019-04-10T08:19:32.976Z,10.38
2019-04-10T08:21:11.232Z,10.56
2019-04-10T08:22:46.840Z,10.19
2019-04-10T08:24:22.291Z,10.29
2019-04-10T08:26:00.036Z,10.55
2019-04-10T08:27:36.202Z,10.29
2019-04-10T08:29:12.091Z,10.49
2019-04-10T08:30:48.265Z,10.11
2019-04-10T08:32:25.721Z,10.00
2019-04-10T08:34:01.635Z,9.92
2019-04-10T08:35:37.831Z,9.52
2019-04-10T08:37:17.230Z,9.67
2019-04-10T08:38:51.494Z,9.68
2019-04-10T08:40:40.443Z,9.85
2019-04-10T08:42:16.802Z,9.85
2019-04-10T08:43:52.550Z,9.96
2019-04-10T08:45:37.231Z,9.81
2019-04-10T08:47:08.991Z,10.25
2019-04-10T08:48:45.538Z,10.03
2019-04-10T08:50:21.744Z,10.17
2019-04-10T08:52:15.189Z,10.29
2019-04-10T08:53:54.177Z,10.63
2019-04-10T08:55:38.530Z,11.02
2019-04-10T08:57:13.912Z,11.16
2019-04-10T08:58:49.766Z,11.06
2019-04-10T09:00:25.039Z,11.36
2019-04-10T09:02:00.241Z,11.45
2019-04-10T09:03:35.713Z,11.78
2019-04-10T09:05:13.278Z,11.84
2019-04-10T09:06:49.486Z,12.11
2019-04-10T09:08:24.718Z,12.52
2019-04-10T09:10:00.165Z,12.05
2019-04-10T09:11:35.465Z,12.11
2019-04-10T09:13:12.497Z,12.30
2019-04-10T09:14:51.677Z,12.82
2019-04-10T09:16:36.464Z,12.99
2019-04-10T09:18:12.759Z,13.11
2019-04-10T09:19:54.090Z,13.22
2019-04-10T09:21:31.735Z,13.09
2019-04-10T09:23:21.817Z,13.12
2019-04-10T09:24:52.799Z,12.79
2019-04-10T09:26:28.684Z,13.03
2019-04-10T09:28:04.283Z,12.10
2019-04-10T09:29:42.651Z,11.73
2019-04-10T09:31:20.486Z,11.39
2019-04-10T09:32:56.911Z,11.56
2019-04-10T09:34:34.038Z,11.68
2019-04-10T09:36:09.568Z,12.06
2019-04-10T09:37:48.292Z,12.41
2019-04-10T09:39:29.623Z,11.92
2019-04-10T09:41:07.867Z,12.43
2019-04-10T09:42:44.513Z,12.68
2019-04-10T09:44:20.789Z,12.44
2019-04-10T09:45:58.221Z,12.03
2019-04-10T09:47:34.659Z,11.84
2019-04-10T09:49:10.315Z,11.63
2019-04-10T09:50:46.207Z,11.88
2019-04-10T09:52:21.782Z,11.84
2019-04-10T09:54:45.128Z,11.79
2019-04-10T09:58:19.922Z,11.88
2019-04-10T10:00:05.570Z,11.74
2019-04-10T10:01:42.270Z,12.28
2019-04-10T10:03:20.653Z,12.43
2019-04-10T10:04:56.053Z,12.61
2019-04-10T10:06:34.872Z,11.79
2019-04-10T10:08:12.168Z,11.56
2019-04-10T10:09:51.340Z,11.49
2019-04-10T10:11:28.677Z,11.07
2019-04-10T10:13:10.974Z,11.29
2019-04-10T10:14:49.361Z,11.60
2019-04-10T10:16:25.532Z,11.56
2019-04-10T10:18:01.324Z,11.05
2019-04-10T10:19:44.361Z,11.58
2019-04-10T10:21:22.436Z,11.69
2019-04-10T10:22:57.932Z,12.05
2019-04-10T10:24:38.499Z,11.95
2019-04-10T10:26:17.534Z,11.79
2019-04-10T10:27:56.563Z,11.47
2019-04-10T10:29:33.545Z,11.63
2019-04-10T10:31:15.803Z,11.71
2019-04-10T10:32:55.969Z,12.19
2019-04-10T10:34:31.097Z,12.34
2019-04-10T10:36:08.868Z,12.45
2019-04-10T10:37:44.086Z,12.49
2019-04-10T10:39:26.533Z,12.88
2019-04-10T10:41:04.545Z,12.31
2019-04-10T10:42:41.485Z,12.82
2019-04-10T10:44:21.950Z,13.03
2019-04-10T10:45:59.497Z,13.21
2019-04-10T10:47:36.625Z,13.85
2019-04-10T10:49:15.945Z,13.57
2019-04-10T10:50:58.187Z,13.58
2019-04-10T10:52:36.496Z,13.46
2019-04-10T10:54:12.546Z,13.50
2019-04-10T10:55:49.720Z,13.98
2019-04-10T10:57:25.397Z,14.09
2019-04-10T11:01:05.805Z,14.40
2019-04-10T11:02:41.679Z,14.56
2019-04-10T11:04:17.109Z,13.72
2019-04-10T11:05:58.213Z,13.61
2019-04-10T11:07:35.245Z,13.30
2019-04-10T11:09:15.774Z,13.38
2019-04-10T11:10:59.376Z,13.61
2019-04-10T11:12:35.768Z,13.36
2019-04-10T11:14:11.057Z,12.90
2019-04-10T11:15:48.456Z,13.48
2019-04-10T11:17:25.552Z,13.68
2019-04-10T11:19:06.707Z,12.95
2019-04-10T11:20:45.506Z,12.76
2019-04-10T11:22:29.021Z,13.03
2019-04-10T11:24:04.404Z,13.24
2019-04-10T11:25:43.871Z,12.38
2019-04-10T11:27:19.005Z,12.47
2019-04-10T11:28:59.227Z,11.94
2019-04-10T11:30:36.275Z,12.19
2019-04-10T11:32:17.616Z,12.71
2019-04-10T11:33:55.637Z,13.28
2019-04-10T11:36:09.752Z,13.56
2019-04-10T11:37:51.985Z,13.84
2019-04-10T11:39:35.272Z,13.32
2019-04-10T11:41:18.921Z,13.44
2019-04-10T11:43:03.596Z,13.18
2019-04-10T11:44:38.952Z,13.29
2019-04-10T11:46:22.625Z,12.73
2019-04-10T11:47:59.074Z,12.58
2019-04-10T11:49:45.169Z,12.81
2019-04-10T11:51:26.490Z,12.97
2019-04-10T11:53:10.445Z,13.29
2019-04-10T11:54:50.032Z,12.79
2019-04-10T11:56:33.777Z,12.79
2019-04-10T11:58:17.875Z,13.19
2019-04-10T12:00:00.744Z,13.11
2019-04-10T12:01:48.379Z,12.88
2019-04-10T12:03:24.660Z,13.62
2019-04-10T12:06:40.310Z,13.63
2019-04-10T12:08:40.266Z,13.38
2019-04-10T12:11:39.564Z,13.16
2019-04-10T12:13:24.635Z,13.28
2019-04-10T12:15:08.361Z,13.23
2019-04-10T12:16:52.070Z,13.01
2019-04-10T12:18:30.729Z,13.32
2019-04-10T12:20:08.953Z,13.63
2019-04-10T12:21:51.291Z,13.75
2019-04-10T12:23:29.156Z,13.42
2019-04-10T12:25:05.302Z,13.19
2019-04-10T12:26:49.902Z,13.13
2019-04-10T12:28:29.839Z,13.08
2019-04-10T12:30:15.357Z,13.09
2019-04-10T12:31:52.801Z,12.75
2019-04-10T12:33:29.686Z,12.79
2019-04-10T12:35:06.929Z,12.85
2019-04-10T12:36:42.693Z,12.67
2019-04-10T12:38:27.708Z,13.11
2019-04-10T12:40:03.485Z,12.96
2019-04-10T12:41:41.626Z,12.99
2019-04-10T12:43:21.231Z,13.03
2019-04-10T12:44:57.764Z,12.89
2019-04-10T12:46:39.464Z,13.09
2019-04-10T12:48:16.603Z,13.09
2019-04-10T12:49:53.791Z,13.26
2019-04-10T12:51:34.939Z,13.22
2019-04-10T12:53:32.507Z,12.91
2019-04-10T12:55:14.423Z,13.04
2019-04-10T12:56:50.553Z,13.37
2019-04-10T12:58:28.930Z,13.08
2019-04-10T13:00:06.791Z,13.15
2019-04-10T13:01:44.877Z,13.29
2019-04-10T13:03:20.353Z,13.05
2019-04-10T13:05:00.861Z,13.05
2019-04-10T13:06:36.121Z,13.07
2019-04-10T13:08:21.801Z,13.16
2019-04-10T13:09:54.631Z,13.08
2019-04-10T13:11:30.063Z,13.24
2019-04-10T13:13:12.118Z,12.78
2019-04-10T13:15:09.417Z,12.20
2019-04-10T13:16:56.407Z,12.31
2019-04-10T13:18:34.752Z,12.94
2019-04-10T13:20:12.025Z,12.89
2019-04-10T13:21:51.730Z,13.30
2019-04-10T13:23:35.766Z,13.08
2019-04-10T13:25:17.072Z,12.91
2019-04-10T13:27:06.125Z,13.02
2019-04-10T13:28:47.640Z,12.78
2019-04-10T13:30:25.494Z,12.74
2019-04-10T13:32:03.524Z,12.56
2019-04-10T13:33:51.169Z,12.44
2019-04-10T13:35:28.390Z,12.46
2019-04-10T13:37:06.134Z,12.25
2019-04-10T13:38:50.533Z,12.04
2019-04-10T13:40:27.752Z,12.06
2019-04-10T13:42:10.101Z,12.03
2019-04-10T13:43:58.179Z,11.90
2019-04-10T13:45:37.431Z,11.86
2019-04-10T13:47:17.873Z,11.30
2019-04-10T13:49:02.504Z,11.48
2019-04-10T13:50:43.111Z,11.61
2019-04-10T13:52:24.460Z,11.37
2019-04-10T13:54:07.575Z,11.33
2019-04-10T13:55:44.477Z,11.29
2019-04-10T13:57:20.173Z,11.40
2019-04-10T13:58:56.308Z,11.50
2019-04-10T14:00:52.099Z,11.44
2019-04-10T14:02:39.432Z,11.55
2019-04-10T14:04:18.757Z,12.05
2019-04-10T14:06:01.165Z,11.86
2019-04-10T14:08:03.648Z,11.04
2019-04-10T14:09:57.027Z,11.20
2019-04-10T14:11:35.356Z,11.25
2019-04-10T14:13:13.635Z,11.23
2019-04-10T14:15:05.149Z,11.28
2019-04-10T14:17:13.852Z,11.56
2019-04-10T14:19:10.121Z,11.28
2019-04-10T14:20:55.560Z,11.40
2019-04-10T14:22:40.024Z,11.32
2019-04-10T14:24:20.604Z,11.41
2019-04-10T14:26:22.488Z,10.93
2019-04-10T14:28:00.592Z,11.10
2019-04-10T14:29:37.194Z,11.58
2019-04-10T14:31:26.571Z,11.30
2019-04-10T14:33:07.066Z,11.62
2019-04-10T14:34:48.386Z,11.86
2019-04-10T14:36:28.335Z,11.74
2019-04-10T14:38:06.531Z,11.28
2019-04-10T14:41:20.056Z,11.28
2019-04-10T14:42:56.064Z,11.59
2019-04-10T14:44:36.801Z,11.98
2019-04-10T14:46:17.418Z,12.22
2019-04-10T14:48:06.411Z,11.51
2019-04-10T14:49:45.820Z,11.30
2019-04-10T14:51:28.297Z,11.59
2019-04-10T14:53:05.601Z,11.77
2019-04-10T14:54:41.946Z,11.46
2019-04-10T14:56:18.056Z,11.76
2019-04-10T14:58:01.316Z,11.65
2019-04-10T14:59:40.283Z,11.37
2019-04-10T15:01:24.012Z,11.49
2019-04-10T15:03:02.136Z,11.45
2019-04-10T15:04:39.403Z,11.59
2019-04-10T15:06:15.420Z,11.97
2019-04-10T15:07:57.416Z,11.92
2019-04-10T15:09:34.964Z,11.40
2019-04-10T15:11:10.824Z,11.48
2019-04-10T15:12:47.677Z,11.56
2019-04-10T15:14:27.887Z,11.71
2019-04-10T15:16:05.248Z,11.77
2019-04-10T15:17:44.370Z,11.34
2019-04-10T15:19:20.771Z,10.98
2019-04-10T15:20:56.953Z,11.01
2019-04-10T15:22:42.141Z,10.77
2019-04-10T15:24:19.485Z,10.74
2019-04-10T15:25:55.571Z,11.11
2019-04-10T15:27:37.505Z,11.14
2019-04-10T15:29:18.387Z,11.29
2019-04-10T15:30:55.282Z,11.00
2019-04-10T15:32:33.655Z,11.08
2019-04-10T15:34:16.201Z,11.01
2019-04-10T15:35:57.568Z,10.78
2019-04-10T15:37:35.927Z,10.25
2019-04-10T15:39:11.229Z,9.90
2019-04-10T15:40:50.325Z,10.09
2019-04-10T15:42:28.289Z,10.00
2019-04-10T15:44:07.892Z,10.01
2019-04-10T15:45:46.449Z,10.12
2019-04-10T15:47:23.397Z,10.09
2019-04-10T15:49:02.784Z,10.07
2019-04-10T15:50:41.622Z,10.25
2019-04-10T15:52:27.270Z,10.36
2019-04-10T15:54:11.768Z,10.41
2019-04-10T15:55:51.693Z,10.49
2019-04-10T15:57:27.681Z,10.35
2019-04-10T15:59:06.058Z,10.35
2019-04-10T16:00:44.126Z,10.25
2019-04-10T16:02:23.802Z,10.21
2019-04-10T16:04:05.237Z,10.22
2019-04-10T16:05:43.861Z,10.19
2019-04-10T16:07:21.054Z,10.00
2019-04-10T16:08:58.843Z,9.70
2019-04-10T16:10:48.305Z,9.83
2019-04-10T16:12:24.843Z,9.91
2019-04-10T16:14:03.076Z,9.89
2019-04-10T16:15:56.521Z,9.54
2019-04-10T16:17:52.121Z,9.47
2019-04-10T16:19:47.662Z,9.68
2019-04-10T16:21:26.930Z,9.68
2019-04-10T16:23:16.433Z,9.54
2019-04-10T16:24:57.668Z,9.30
2019-04-10T16:26:35.914Z,9.18
2019-04-10T16:28:15.390Z,9.26
2019-04-10T16:29:56.603Z,9.31
2019-04-10T16:31:37.683Z,9.29
2019-04-10T16:33:17.356Z,9.16
2019-04-10T16:34:56.803Z,9.33
2019-04-10T16:36:37.404Z,9.20
2019-04-10T16:38:16.275Z,9.15
2019-04-10T16:40:01.743Z,9.17
2019-04-10T16:41:31.457Z,9.08
2019-04-10T16:43:11.680Z,8.86
2019-04-10T16:44:51.551Z,8.88
2019-04-10T16:46:38.333Z,8.79
2019-04-10T16:48:28.132Z,8.82
2019-04-10T16:50:05.531Z,8.77
2019-04-10T16:51:57.359Z,8.71
2019-04-10T16:53:56.597Z,8.76
2019-04-10T16:55:29.733Z,8.68
2019-04-10T16:57:12.153Z,8.62
2019-04-10T16:58:54.213Z,8.62
2019-04-10T17:00:35.728Z,8.66
2019-04-10T17:02:13.246Z,8.62
2019-04-10T17:03:49.797Z,8.53
2019-04-10T17:05:28.203Z,8.50
2019-04-10T17:07:04.731Z,8.41
2019-04-10T17:08:40.933Z,8.33
2019-04-10T17:10:29.207Z,8.37
2019-04-10T17:12:06.454Z,8.21
2019-04-10T17:13:46.700Z,8.22
2019-04-10T17:15:23.896Z,8.20
2019-04-10T17:17:06.935Z,8.00
2019-04-10T17:18:41.677Z,7.99
2019-04-10T17:20:18.588Z,8.04
2019-04-10T17:21:56.388Z,7.87
2019-04-10T17:23:34.482Z,7.89
2019-04-10T17:25:11.772Z,7.96
2019-04-10T17:26:50.986Z,7.97
2019-04-10T17:28:28.206Z,7.97
2019-04-10T17:30:06.366Z,7.78
2019-04-10T17:31:43.185Z,7.70
2019-04-10T17:33:20.673Z,7.73
2019-04-10T17:34:59.428Z,7.67
2019-04-10T17:36:36.807Z,7.67
2019-04-10T17:38:30.979Z,7.62
2019-04-10T17:40:23.135Z,7.60
2019-04-10T17:41:48.173Z,7.52
2019-04-10T17:43:25.386Z,7.42
2019-04-10T17:45:10.067Z,7.38
2019-04-10T17:46:47.028Z,7.30
2019-04-10T17:48:28.058Z,7.35
2019-04-10T17:50:18.380Z,7.31
2019-04-10T17:51:59.818Z,7.08
2019-04-10T17:53:41.989Z,7.06
2019-04-10T17:55:23.588Z,6.98
2019-04-10T17:59:02.477Z,6.83
2019-04-10T18:00:53.542Z,6.76
2019-04-10T18:02:34.555Z,6.69
2019-04-10T18:04:11.734Z,6.61
2019-04-10T18:05:50.926Z,6.43
2019-04-10T18:07:34.297Z,6.37
2019-04-10T18:09:15.892Z,6.31
2019-04-10T18:10:58.357Z,6.28
2019-04-10T18:12:36.270Z,6.20
2019-04-10T18:14:20.503Z,6.19
2019-04-10T18:15:58.500Z,6.10
2019-04-10T18:17:33.701Z,6.01
2019-04-10T18:19:15.028Z,5.96
2019-04-10T18:20:49.953Z,5.94
2019-04-10T18:22:26.784Z,5.82
2019-04-10T18:24:20.019Z,5.89
2019-04-10T18:25:58.212Z,5.83
2019-04-10T18:27:38.550Z,5.74
2019-04-10T18:29:14.897Z,5.67
2019-04-10T18:31:02.711Z,5.62
2019-04-10T18:32:43.316Z,5.55
2019-04-10T18:34:23.276Z,5.49
2019-04-10T18:36:00.653Z,5.46
2019-04-10T18:37:42.402Z,5.41
2019-04-10T18:41:30.790Z,5.27
2019-04-10T18:43:08.415Z,5.22
2019-04-10T18:45:11.182Z,5.14
2019-04-10T18:47:18.615Z,5.05
2019-04-10T18:48:52.557Z,5.02
2019-04-10T18:50:51.605Z,5.04
2019-04-10T18:52:31.686Z,5.08
2019-04-10T18:54:36.005Z,5.07
2019-04-10T18:56:20.802Z,5.04
2019-04-10T18:58:05.458Z,5.07
2019-04-10T18:59:53.511Z,5.00
2019-04-10T19:01:55.701Z,4.96
2019-04-10T19:03:46.172Z,4.98
2019-04-10T19:05:21.835Z,4.95
2019-04-10T19:07:04.991Z,4.94
2019-04-10T19:09:01.560Z,4.92
2019-04-10T19:10:26.454Z,4.88
2019-04-10T19:12:02.568Z,4.92
2019-04-10T19:13:38.241Z,4.89
2019-04-10T19:15:16.957Z,4.87
2019-04-10T19:16:55.243Z,4.81
2019-04-10T19:18:35.636Z,4.81
2019-04-10T19:20:17.869Z,4.74
2019-04-10T19:21:56.012Z,4.73
2019-04-10T19:23:35.280Z,4.71
2019-04-10T19:25:16.481Z,4.66
2019-04-10T19:26:53.887Z,4.58
2019-04-10T19:28:41.887Z,4.57
2019-04-10T19:30:41.373Z,4.57
2019-04-10T19:32:35.419Z,4.48
2019-04-10T19:34:17.690Z,4.48
2019-04-10T19:35:53.118Z,4.44
2019-04-10T19:37:28.638Z,4.43
2019-04-10T19:39:05.540Z,4.39
2019-04-10T19:40:43.803Z,4.35
2019-04-10T19:42:22.363Z,4.38
2019-04-10T19:44:13.027Z,4.35
2019-04-10T19:45:52.243Z,4.29
2019-04-10T19:47:30.482Z,4.27
2019-04-10T19:49:08.146Z,4.21
2019-04-10T19:50:49.871Z,4.18
2019-04-10T19:52:26.431Z,4.22
2019-04-10T19:54:07.322Z,4.20
2019-04-10T19:55:48.333Z,4.17
2019-04-10T19:57:26.362Z,4.13
2019-04-10T19:59:03.393Z,4.12
2019-04-10T20:00:41.119Z,4.08
2019-04-10T20:02:19.050Z,4.06
2019-04-10T20:03:56.386Z,4.06
2019-04-10T20:05:34.629Z,4.05
2019-04-10T20:07:13.220Z,4.08
2019-04-10T20:08:53.930Z,4.04
2019-04-10T20:10:33.128Z,3.98
2019-04-10T20:12:16.153Z,4.01
2019-04-10T20:13:51.513Z,3.99
2019-04-10T20:15:26.895Z,3.94
2019-04-10T20:17:03.869Z,3.95
2019-04-10T20:18:43.206Z,3.95
2019-04-10T20:20:19.155Z,3.88
2019-04-10T20:22:06.845Z,3.81
2019-04-10T20:23:52.345Z,3.78
2019-04-10T20:25:26.746Z,3.77
2019-04-10T20:27:03.470Z,3.77
2019-04-10T20:28:38.945Z,3.68
2019-04-10T20:30:17.979Z,3.67
2019-04-10T20:31:55.374Z,3.63
2019-04-10T20:33:31.025Z,3.56
2019-04-10T20:35:07.678Z,3.54
2019-04-10T20:36:44.929Z,3.49
2019-04-10T20:38:20.897Z,3.47
2019-04-10T20:39:57.946Z,3.42
2019-04-10T20:41:45.018Z,3.46
2019-04-10T20:43:13.032Z,3.57
2019-04-10T20:44:54.816Z,3.45
2019-04-10T20:46:30.669Z,3.42
2019-04-10T20:48:08.619Z,3.44
2019-04-10T20:49:44.689Z,3.37
2019-04-10T20:51:20.817Z,3.33
2019-04-10T20:52:56.378Z,3.33
2019-04-10T20:54:32.954Z,3.31
2019-04-10T20:56:10.366Z,3.31
2019-04-10T20:57:52.102Z,3.26
2019-04-10T20:59:28.540Z,3.25
2019-04-10T21:01:04.410Z,3.37
2019-04-10T21:02:44.759Z,3.31
2019-04-10T21:04:21.322Z,3.29
2019-04-10T21:05:58.289Z,3.24
2019-04-10T21:07:39.554Z,3.19
2019-04-10T21:09:17.650Z,3.16
2019-04-10T21:10:56.950Z,3.09
2019-04-10T21:12:34.212Z,3.15
2019-04-10T21:14:21.291Z,3.11
2019-04-10T21:16:02.863Z,3.12
2019-04-10T21:17:39.940Z,3.05
2019-04-10T21:19:33.458Z,3.04
2019-04-10T21:21:19.210Z,3.01
2019-04-10T21:22:54.239Z,2.91
2019-04-10T21:24:36.447Z,2.94
2019-04-10T21:26:19.781Z,2.97
2019-04-10T21:27:57.716Z,3.03
2019-04-10T21:30:07.273Z,2.97
2019-04-10T21:32:09.445Z,2.94
2019-04-10T21:34:07.658Z,2.98
2019-04-10T21:35:47.982Z,2.96
2019-04-10T21:37:28.370Z,2.99
2019-04-10T21:39:05.902Z,3.02
2019-04-10T21:40:53.481Z,2.95
2019-04-10T21:42:29.783Z,2.98
2019-04-10T21:44:05.023Z,2.96
2019-04-10T21:45:43.978Z,2.89
2019-04-10T21:47:21.602Z,2.91
2019-04-10T21:48:57.612Z,2.85
2019-04-10T21:50:33.670Z,2.94
2019-04-10T21:52:12.600Z,2.87
2019-04-10T21:53:50.844Z,2.87
2019-04-10T21:55:29.090Z,3.00
2019-04-10T21:57:05.421Z,3.04
2019-04-10T21:58:41.872Z,2.97
2019-04-10T22:00:19.022Z,2.91
2019-04-10T22:01:59.197Z,2.86